Time;durP1;ratioP1;P1;durP2;ratioP2;P2;SDS_P1;SDS_P2;PMS_P1;PMS_P2;Temp;Humidity;BMP_temperature;BMP_pressure;BME280_temperature;BME280_humidity;BME280_pressure;Samples;Min_cycle;Max_cycle;Signal;HPM_P1;HPM_P2
2021/12/28 00:00:59;;;;;;;1.47;1.37;;;7.40;99.90;;;;;;4748447;29;20197;-89
2021/12/28 00:03:24;;;;;;;1.70;1.23;;;7.40;99.90;;;;;;4766462;29;20460;-88
2021/12/28 00:05:50;;;;;;;1.60;1.50;;;7.40;99.90;;;;;;4758633;29;20469;-89
2021/12/28 00:08:18;;;;;;;1.60;1.10;;;7.30;99.90;;;;;;4770605;29;20613;-89
2021/12/28 00:10:44;;;;;;;3.53;1.43;;;7.30;99.90;;;;;;4757679;29;20215;-89
2021/12/28 00:13:10;;;;;;;2.07;1.57;;;7.20;99.90;;;;;;4746147;29;20527;-89
2021/12/28 00:15:48;;;;;;;2.80;1.40;;;7.20;99.90;;;;;;4750999;29;20197;-89
2021/12/28 00:18:15;;;;;;;2.40;1.57;;;7.20;99.90;;;;;;4754963;29;20261;-89
2021/12/28 00:20:44;;;;;;;1.30;1.20;;;7.20;99.90;;;;;;4747133;29;20959;-89
2021/12/28 00:23:17;;;;;;;2.10;1.73;;;7.20;99.90;;;;;;4772435;29;20499;-90
2021/12/28 00:25:44;;;;;;;1.53;1.43;;;7.10;99.90;;;;;;4765974;29;20476;-89
2021/12/28 00:28:10;;;;;;;1.87;1.50;;;7.10;99.90;;;;;;4761746;29;22478;-89
2021/12/28 00:30:36;;;;;;;1.57;1.33;;;7.00;99.90;;;;;;4765666;29;20851;-89
2021/12/28 00:33:03;;;;;;;14.77;4.00;;;7.00;99.90;;;;;;4762980;29;20922;-89
2021/12/28 00:35:39;;;;;;;1.50;1.40;;;7.00;99.90;;;;;;4764776;29;20464;-90
2021/12/28 00:38:07;;;;;;;1.20;1.20;;;7.00;99.90;;;;;;4751952;29;21586;-90
2021/12/28 00:40:35;;;;;;;1.93;1.30;;;7.00;99.90;;;;;;4765542;29;20979;-90
2021/12/28 00:43:01;;;;;;;2.80;1.60;;;6.90;99.90;;;;;;4746210;29;20457;-89
2021/12/28 00:45:28;;;;;;;2.87;1.17;;;6.80;99.90;;;;;;4758452;29;20576;-89
2021/12/28 00:47:54;;;;;;;0.97;0.90;;;6.70;99.90;;;;;;4762526;29;20453;-89
2021/12/28 00:50:20;;;;;;;1.60;0.70;;;6.70;99.90;;;;;;4763801;29;21063;-89
2021/12/28 00:52:47;;;;;;;1.03;1.00;;;6.60;99.90;;;;;;4757623;29;20562;-89
2021/12/28 00:55:14;;;;;;;1.30;0.97;;;6.60;99.90;;;;;;4745473;29;21004;-89
2021/12/28 00:57:40;;;;;;;2.53;1.00;;;6.50;99.90;;;;;;4757600;29;20499;-89
2021/12/28 01:00:10;;;;;;;0.83;0.60;;;6.50;99.90;;;;;;4763681;29;20463;-89
2021/12/28 01:02:36;;;;;;;1.00;0.70;;;6.50;99.90;;;;;;4741198;29;20465;-89
2021/12/28 01:05:03;;;;;;;2.93;1.10;;;6.40;99.90;;;;;;4764189;29;20500;-89
2021/12/28 01:07:29;;;;;;;1.13;0.90;;;6.30;99.90;;;;;;4762213;29;20533;-90
2021/12/28 01:09:55;;;;;;;0.93;0.90;;;6.30;99.90;;;;;;4749861;29;20457;-89
2021/12/28 01:12:20;;;;;;;2.33;0.80;;;6.30;99.90;;;;;;4767082;29;21133;-89
2021/12/28 01:14:46;;;;;;;2.17;0.87;;;6.30;99.90;;;;;;4750957;29;20212;-89
2021/12/28 01:17:12;;;;;;;0.60;0.60;;;6.20;99.90;;;;;;4750083;29;20858;-89
2021/12/28 01:19:38;;;;;;;1.07;0.90;;;6.10;99.90;;;;;;4762629;29;20209;-89
2021/12/28 01:22:04;;;;;;;2.03;0.93;;;6.10;99.90;;;;;;4752835;29;20206;-89
2021/12/28 01:24:30;;;;;;;4.47;1.13;;;6.00;99.90;;;;;;4764658;29;20333;-89
2021/12/28 01:26:57;;;;;;;1.20;1.00;;;5.90;99.90;;;;;;4764626;29;20452;-90
2021/12/28 01:29:23;;;;;;;2.53;2.33;;;6.00;99.90;;;;;;4760568;29;20458;-89
2021/12/28 01:31:48;;;;;;;1.43;1.33;;;6.10;99.90;;;;;;4748811;29;21115;-89
2021/12/28 01:34:14;;;;;;;2.20;1.40;;;6.10;99.90;;;;;;4748141;29;20957;-90
2021/12/28 01:36:40;;;;;;;1.33;1.00;;;6.10;99.90;;;;;;4765149;29;20994;-89
2021/12/28 01:39:09;;;;;;;1.00;1.00;;;6.20;99.90;;;;;;4748330;29;20699;-89
2021/12/28 01:41:38;;;;;;;2.60;0.93;;;6.10;99.90;;;;;;4764021;29;20208;-89
2021/12/28 01:44:24;;;;;;;0.90;0.90;;;6.00;99.90;;;;;;4761399;29;21025;-89
2021/12/28 01:46:50;;;;;;;2.67;0.80;;;6.00;99.90;;;;;;4748481;29;20800;-89
2021/12/28 01:49:16;;;;;;;1.43;0.80;;;6.00;99.90;;;;;;4749585;29;20461;-88
2021/12/28 01:51:42;;;;;;;1.60;0.97;;;6.10;99.90;;;;;;4763712;29;20308;-89
2021/12/28 01:54:07;;;;;;;0.80;0.80;;;6.00;99.90;;;;;;4762575;29;20849;-89
2021/12/28 01:56:40;;;;;;;0.70;0.70;;;5.90;99.90;;;;;;4763691;29;20212;-89
2021/12/28 01:59:08;;;;;;;0.63;0.63;;;5.90;99.90;;;;;;4765255;29;20628;-89
2021/12/28 02:01:35;;;;;;;1.03;0.93;;;5.90;99.90;;;;;;4763117;29;20467;-89
2021/12/28 02:04:02;;;;;;;0.77;0.77;;;5.90;99.90;;;;;;4758192;29;20909;-89
2021/12/28 02:06:29;;;;;;;0.83;0.73;;;5.80;99.90;;;;;;4757689;29;20498;-89
2021/12/28 02:08:55;;;;;;;1.20;1.10;;;5.80;99.90;;;;;;4754509;29;20596;-89
2021/12/28 02:11:21;;;;;;;1.43;1.00;;;5.80;99.90;;;;;;4762215;29;20470;-89
2021/12/28 02:13:48;;;;;;;1.40;0.60;;;5.80;99.90;;;;;;4749382;29;20712;-89
2021/12/28 02:16:15;;;;;;;0.60;0.60;;;5.80;99.90;;;;;;4743414;29;20517;-89
2021/12/28 02:18:41;;;;;;;0.90;0.80;;;5.70;99.90;;;;;;4743563;29;21239;-89
2021/12/28 02:21:07;;;;;;;1.30;0.70;;;5.70;99.90;;;;;;4748277;29;20497;-89
2021/12/28 02:23:34;;;;;;;1.43;0.60;;;5.60;99.90;;;;;;4762584;29;20457;-89
2021/12/28 02:26:00;;;;;;;1.37;0.73;;;5.50;99.90;;;;;;4753964;29;20473;-89
2021/12/28 02:28:26;;;;;;;3.03;1.27;;;5.50;99.90;;;;;;4750932;29;20813;-89
2021/12/28 02:30:54;;;;;;;3.20;1.60;;;5.60;99.90;;;;;;4750783;29;20321;-89
2021/12/28 02:33:21;;;;;;;7.27;2.13;;;5.80;99.90;;;;;;4761119;29;20247;-88
2021/12/28 02:35:47;;;;;;;5.03;1.80;;;6.10;99.90;;;;;;4763151;29;20464;-88
2021/12/28 02:38:13;;;;;;;4.20;1.20;;;6.40;99.90;;;;;;4750707;29;20633;-89
2021/12/28 02:40:42;;;;;;;4.10;1.50;;;6.60;99.90;;;;;;4752712;29;20911;-89
2021/12/28 02:43:09;;;;;;;7.87;1.60;;;6.80;99.90;;;;;;4765112;29;20485;-88
2021/12/28 02:45:40;;;;;;;5.70;1.57;;;6.90;99.90;;;;;;4761342;29;20580;-89
2021/12/28 02:48:07;;;;;;;4.73;1.57;;;7.00;99.90;;;;;;4748413;29;20471;-88
2021/12/28 02:50:39;;;;;;;3.33;1.30;;;7.10;99.90;;;;;;4755850;29;20454;-89
2021/12/28 02:53:06;;;;;;;5.33;2.00;;;7.10;99.90;;;;;;4762809;29;20473;-88
2021/12/28 02:55:33;;;;;;;3.80;1.60;;;7.20;99.90;;;;;;4748210;29;20509;-88
2021/12/28 02:58:05;;;;;;;3.60;1.37;;;7.20;99.90;;;;;;4760845;29;21004;-89
2021/12/28 03:00:32;;;;;;;2.97;1.10;;;7.20;99.90;;;;;;4763984;29;21454;-89
2021/12/28 03:02:58;;;;;;;1.43;1.20;;;7.20;99.90;;;;;;4748735;29;20469;-88
2021/12/28 03:05:25;;;;;;;3.60;1.40;;;7.20;99.90;;;;;;4747966;29;20500;-89
2021/12/28 03:07:50;;;;;;;9.83;1.60;;;7.20;99.90;;;;;;4757634;29;20481;-89
2021/12/28 03:10:16;;;;;;;4.13;1.30;;;7.20;99.90;;;;;;4748660;29;20891;-88
2021/12/28 03:12:42;;;;;;;3.83;1.40;;;7.20;99.90;;;;;;4747018;29;20210;-89
2021/12/28 03:15:08;;;;;;;2.90;1.37;;;7.20;99.90;;;;;;4749644;29;20465;-88
2021/12/28 03:17:34;;;;;;;3.40;1.47;;;7.30;99.90;;;;;;4750957;29;20214;-88
2021/12/28 03:19:59;;;;;;;3.50;1.40;;;7.30;99.90;;;;;;4751425;29;20829;-89
2021/12/28 03:22:27;;;;;;;9.20;1.63;;;7.30;99.90;;;;;;4749512;29;21115;-88
2021/12/28 03:24:53;;;;;;;5.47;2.60;;;7.40;99.90;;;;;;4761216;29;20596;-89
2021/12/28 03:27:19;;;;;;;5.07;1.97;;;7.40;99.90;;;;;;4765860;29;21180;-89
2021/12/28 03:29:44;;;;;;;4.77;2.53;;;7.40;99.90;;;;;;4746113;29;20800;-88
2021/12/28 03:32:10;;;;;;;3.20;1.60;;;7.40;99.90;;;;;;4746049;29;20207;-88
2021/12/28 03:34:36;;;;;;;6.90;2.20;;;7.40;99.90;;;;;;4747151;29;20278;-89
2021/12/28 03:37:01;;;;;;;2.63;1.10;;;7.50;99.90;;;;;;4746305;29;20208;-89
2021/12/28 03:39:27;;;;;;;3.30;1.30;;;7.50;99.90;;;;;;4746041;29;20214;-88
2021/12/28 03:41:58;;;;;;;3.27;1.40;;;7.50;99.90;;;;;;4751490;29;20233;-88
2021/12/28 03:44:24;;;;;;;3.23;1.10;;;7.50;99.90;;;;;;4759763;29;20674;-89
2021/12/28 03:46:49;;;;;;;4.47;1.23;;;7.50;99.90;;;;;;4747800;29;20504;-89
2021/12/28 03:49:15;;;;;;;3.77;1.50;;;7.40;99.90;;;;;;4762829;29;22391;-89
2021/12/28 03:51:40;;;;;;;2.83;1.00;;;7.40;99.90;;;;;;4764661;29;20204;-88
2021/12/28 03:54:06;;;;;;;2.33;1.20;;;7.50;99.90;;;;;;4744870;29;20331;-89
2021/12/28 03:56:32;;;;;;;3.60;1.67;;;7.40;99.90;;;;;;4765932;29;20718;-88
2021/12/28 03:58:58;;;;;;;4.80;0.87;;;7.30;99.90;;;;;;4770511;29;20692;-89
2021/12/28 04:01:25;;;;;;;3.33;1.10;;;7.10;99.90;;;;;;4753037;29;21677;-89
2021/12/28 04:03:51;;;;;;;2.30;0.83;;;7.10;99.90;;;;;;4751450;29;20265;-89
2021/12/28 04:06:19;;;;;;;2.10;0.70;;;7.10;99.90;;;;;;4769578;29;20489;-89
2021/12/28 04:08:53;;;;;;;1.47;0.80;;;7.10;99.90;;;;;;4756749;29;20472;-89
2021/12/28 04:13:49;;;;;;;2.50;1.50;;;7.20;99.90;;;;;;4769283;29;20775;-89
2021/12/28 04:16:17;;;;;;;3.93;2.07;;;7.30;99.90;;;;;;4757773;29;20473;-89
2021/12/28 04:18:43;;;;;;;5.73;2.13;;;7.40;99.90;;;;;;4765500;29;20457;-89
2021/12/28 04:21:10;;;;;;;2.60;1.40;;;7.40;99.90;;;;;;4756482;29;20955;-89
2021/12/28 04:23:36;;;;;;;2.10;0.87;;;7.50;99.90;;;;;;4751403;29;20203;-89
2021/12/28 04:26:04;;;;;;;6.57;1.00;;;7.50;99.90;;;;;;4768685;29;20503;-88
2021/12/28 04:28:31;;;;;;;5.20;2.43;;;7.60;99.90;;;;;;4768358;29;20541;-88
2021/12/28 04:31:06;;;;;;;2.47;1.17;;;7.60;99.90;;;;;;4753449;29;20530;-89
2021/12/28 04:33:32;;;;;;;5.90;1.40;;;7.70;99.90;;;;;;4752764;29;20457;-89
2021/12/28 04:35:58;;;;;;;2.80;0.73;;;7.70;99.90;;;;;;4753916;29;21433;-88
2021/12/28 04:38:24;;;;;;;2.53;1.30;;;7.70;99.90;;;;;;4769825;29;21285;-89
2021/12/28 04:40:52;;;;;;;2.00;0.90;;;7.70;99.90;;;;;;4765228;29;20508;-89
2021/12/28 04:43:21;;;;;;;0.80;0.80;;;7.70;99.90;;;;;;4753995;29;21104;-89
2021/12/28 04:45:54;;;;;;;1.50;0.77;;;7.70;99.90;;;;;;4765828;29;20493;-88
2021/12/28 04:48:20;;;;;;;1.50;0.97;;;7.80;99.90;;;;;;4753248;29;20272;-88
2021/12/28 04:50:46;;;;;;;2.77;0.77;;;7.80;99.90;;;;;;4766892;29;20495;-87
2021/12/28 04:53:13;;;;;;;2.23;1.07;;;7.90;99.90;;;;;;4752077;29;21410;-88
2021/12/28 04:55:49;;;;;;;3.10;1.50;;;7.90;99.90;;;;;;4751027;29;20192;-87
2021/12/28 04:58:15;;;;;;;3.37;1.00;;;8.00;99.90;;;;;;4749979;29;20460;-88
2021/12/28 05:00:42;;;;;;;3.53;1.30;;;8.00;99.90;;;;;;4750597;29;20457;-88
2021/12/28 05:03:08;;;;;;;1.77;0.87;;;8.00;99.90;;;;;;4768843;29;21061;-89
2021/12/28 05:05:35;;;;;;;1.13;0.80;;;8.00;99.90;;;;;;4753357;29;20492;-87
2021/12/28 05:08:04;;;;;;;1.03;0.80;;;8.00;99.90;;;;;;4748223;29;20454;-88
2021/12/28 05:10:30;;;;;;;2.77;0.87;;;8.00;99.90;;;;;;4747041;29;20472;-88
2021/12/28 05:12:56;;;;;;;1.00;0.90;;;8.00;99.90;;;;;;4748497;29;20468;-88
2021/12/28 05:15:22;;;;;;;2.40;1.03;;;8.00;99.90;;;;;;4748008;29;21225;-87
2021/12/28 05:17:47;;;;;;;3.23;1.00;;;8.00;99.90;;;;;;4767051;29;20217;-87
2021/12/28 05:20:26;;;;;;;2.00;1.03;;;8.00;99.90;;;;;;4752622;29;20222;-88
2021/12/28 05:22:52;;;;;;;2.20;1.27;;;8.00;99.90;;;;;;4749496;29;20346;-88
2021/12/28 05:25:18;;;;;;;4.30;1.20;;;8.00;99.90;;;;;;4762720;29;21045;-88
2021/12/28 05:27:44;;;;;;;1.47;1.37;;;8.00;99.90;;;;;;4750815;29;20224;-88
2021/12/28 05:30:10;;;;;;;2.23;1.30;;;8.00;99.90;;;;;;4758259;29;20472;-88
2021/12/28 05:32:39;;;;;;;1.10;1.10;;;8.00;99.90;;;;;;4767360;29;20260;-88
2021/12/28 05:35:08;;;;;;;1.23;0.97;;;8.00;99.90;;;;;;4760995;29;20541;-88
2021/12/28 05:37:37;;;;;;;2.27;1.27;;;8.10;99.90;;;;;;4759497;29;20837;-88
2021/12/28 05:40:07;;;;;;;1.20;1.10;;;8.10;99.90;;;;;;4747489;29;20465;-88
2021/12/28 05:42:33;;;;;;;1.77;1.00;;;8.10;99.90;;;;;;4750737;29;20522;-88
2021/12/28 05:44:59;;;;;;;1.53;0.80;;;8.20;99.90;;;;;;4764897;29;20592;-88
2021/12/28 05:47:24;;;;;;;1.20;0.60;;;8.30;99.90;;;;;;4754391;29;20513;-88
2021/12/28 05:49:50;;;;;;;0.90;0.80;;;8.30;99.90;;;;;;4763073;29;20223;-87
2021/12/28 05:52:16;;;;;;;0.93;0.80;;;8.30;99.90;;;;;;4764415;29;20312;-88
2021/12/28 05:54:42;;;;;;;1.30;0.90;;;8.40;99.90;;;;;;4764004;29;20203;-87
2021/12/28 05:57:08;;;;;;;1.20;1.10;;;8.40;99.90;;;;;;4748977;29;20243;-88
2021/12/28 05:59:34;;;;;;;1.33;1.00;;;8.50;99.90;;;;;;4750965;29;20197;-88
2021/12/28 06:02:00;;;;;;;1.47;1.00;;;8.50;99.90;;;;;;4760448;29;21039;-87
2021/12/28 06:04:28;;;;;;;1.20;1.10;;;8.50;99.90;;;;;;4749188;29;20517;-88
2021/12/28 06:06:54;;;;;;;1.70;1.50;;;8.50;99.90;;;;;;4762503;29;20700;-89
2021/12/28 06:09:19;;;;;;;0.93;0.93;;;8.60;99.90;;;;;;4761966;29;20457;-88
2021/12/28 06:11:48;;;;;;;1.10;0.97;;;8.60;99.90;;;;;;4759247;29;20268;-89
2021/12/28 06:14:14;;;;;;;1.67;1.13;;;8.60;99.90;;;;;;4753230;29;21231;-88
2021/12/28 06:16:51;;;;;;;2.73;1.23;;;8.50;99.90;;;;;;4762339;29;20503;-88
2021/12/28 06:19:17;;;;;;;2.13;1.40;;;8.50;99.90;;;;;;4762341;29;20469;-89
2021/12/28 06:21:43;;;;;;;2.67;1.13;;;8.50;99.90;;;;;;4743138;29;20255;-88
2021/12/28 06:24:08;;;;;;;1.30;1.20;;;8.50;99.90;;;;;;4761758;29;20972;-87
2021/12/28 06:26:35;;;;;;;1.43;1.20;;;8.40;99.90;;;;;;4759996;29;20243;-89
2021/12/28 06:29:05;;;;;;;1.30;1.20;;;8.40;99.90;;;;;;4743152;29;20199;-89
2021/12/28 06:31:31;;;;;;;1.80;0.90;;;8.40;99.90;;;;;;4762907;29;20608;-89
2021/12/28 06:33:58;;;;;;;1.63;0.93;;;8.40;99.90;;;;;;4741663;29;20524;-89
2021/12/28 06:36:25;;;;;;;1.33;1.10;;;8.40;99.90;;;;;;4761117;29;21288;-89
2021/12/28 06:38:51;;;;;;;2.87;1.00;;;8.40;99.90;;;;;;4757277;29;20972;-89
2021/12/28 06:41:16;;;;;;;1.20;1.07;;;8.30;99.90;;;;;;4736724;29;20675;-89
2021/12/28 06:43:42;;;;;;;1.07;0.97;;;8.30;99.90;;;;;;4760304;29;20903;-89
2021/12/28 06:46:08;;;;;;;2.53;0.90;;;8.30;99.90;;;;;;4751234;29;20995;-89
2021/12/28 06:48:34;;;;;;;1.20;1.10;;;8.30;99.90;;;;;;4746523;29;20488;-88
2021/12/28 06:51:00;;;;;;;2.73;1.07;;;8.30;99.90;;;;;;4775235;29;21132;-89
2021/12/28 06:53:25;;;;;;;1.33;1.23;;;8.30;99.90;;;;;;4786058;29;20218;-89
2021/12/28 06:55:51;;;;;;;2.60;1.07;;;8.20;99.90;;;;;;4785367;29;20244;-88
2021/12/28 06:58:17;;;;;;;2.00;0.93;;;8.20;99.90;;;;;;4763486;29;20206;-88
2021/12/28 07:00:43;;;;;;;1.90;1.67;;;8.20;99.90;;;;;;4789250;29;20208;-89
2021/12/28 07:03:09;;;;;;;1.20;0.90;;;8.20;99.90;;;;;;4790771;29;20196;-88
2021/12/28 07:05:35;;;;;;;4.17;3.30;;;8.20;99.90;;;;;;4784595;29;20527;-88
2021/12/28 07:08:01;;;;;;;5.10;4.00;;;8.10;99.90;;;;;;4745260;29;21040;-88
2021/12/28 07:10:27;;;;;;;1.30;1.20;;;8.20;99.90;;;;;;4761010;29;20200;-88
2021/12/28 07:12:55;;;;;;;3.23;1.20;;;8.20;99.90;;;;;;4752882;29;20909;-88
2021/12/28 07:15:25;;;;;;;1.00;1.00;;;8.10;99.90;;;;;;4738847;29;20208;-88
2021/12/28 07:17:53;;;;;;;1.13;1.03;;;8.10;99.90;;;;;;4742348;29;20473;-88
2021/12/28 07:20:19;;;;;;;1.20;1.10;;;8.20;99.90;;;;;;4747252;29;20574;-88
2021/12/28 07:22:45;;;;;;;1.90;1.80;;;8.20;99.90;;;;;;4746314;29;20457;-89
2021/12/28 07:25:11;;;;;;;0.83;0.83;;;8.20;99.90;;;;;;4764474;29;21176;-89
2021/12/28 07:27:38;;;;;;;1.33;0.97;;;8.20;99.90;;;;;;4757350;29;20290;-88
2021/12/28 07:30:08;;;;;;;0.60;0.60;;;8.20;99.90;;;;;;4748423;29;20862;-89
2021/12/28 07:32:34;;;;;;;1.13;1.10;;;8.20;99.90;;;;;;4763255;29;20458;-89
2021/12/28 07:35:00;;;;;;;1.40;1.30;;;8.20;99.90;;;;;;4744352;29;20488;-89
2021/12/28 07:37:46;;;;;;;1.07;1.07;;;8.20;99.90;;;;;;4742457;29;20895;-89
2021/12/28 07:40:15;;;;;;;1.17;1.17;;;8.20;99.90;;;;;;4745715;29;24992;-89
2021/12/28 07:42:44;;;;;;;0.77;0.77;;;8.30;99.90;;;;;;4750749;29;20458;-88
2021/12/28 07:45:13;;;;;;;1.27;1.00;;;8.30;99.90;;;;;;4743893;29;21091;-89
2021/12/28 07:47:42;;;;;;;1.23;0.93;;;8.30;99.90;;;;;;4745846;29;20583;-89
2021/12/28 07:50:10;;;;;;;1.80;0.87;;;8.30;99.90;;;;;;4756312;29;20469;-87
2021/12/28 07:52:36;;;;;;;2.13;1.33;;;8.30;99.90;;;;;;4748054;29;20534;-88
2021/12/28 07:55:04;;;;;;;1.20;1.10;;;8.40;99.90;;;;;;4753941;29;20474;-87
2021/12/28 07:57:31;;;;;;;4.80;1.73;;;8.40;99.90;;;;;;4747776;29;20195;-88
2021/12/28 07:59:57;;;;;;;1.03;1.03;;;8.50;99.90;;;;;;4757788;29;20508;-88
2021/12/28 08:02:29;;;;;;;1.50;1.23;;;8.60;99.90;;;;;;4740512;29;20854;-88
2021/12/28 08:05:13;;;;;;;1.73;1.63;;;8.70;99.90;;;;;;4755521;29;21254;-89
2021/12/28 08:07:42;;;;;;;1.87;1.10;;;8.70;99.90;;;;;;4758319;29;20596;-88
2021/12/28 08:10:09;;;;;;;3.33;0.90;;;8.80;99.90;;;;;;4758814;29;20465;-89
2021/12/28 08:12:35;;;;;;;1.90;1.33;;;8.80;99.90;;;;;;4745752;29;20453;-89
2021/12/28 08:15:03;;;;;;;1.37;1.10;;;8.90;99.90;;;;;;4759615;29;20489;-89
2021/12/28 08:17:29;;;;;;;1.03;0.90;;;8.90;99.90;;;;;;4742464;29;20200;-89
2021/12/28 08:19:55;;;;;;;1.30;1.10;;;9.00;99.90;;;;;;4747314;29;20564;-87
2021/12/28 08:22:21;;;;;;;0.60;0.60;;;9.10;99.90;;;;;;4747721;29;20480;-92
2021/12/28 08:24:46;;;;;;;0.83;0.60;;;9.20;99.90;;;;;;4743706;29;20650;-88
2021/12/28 08:27:12;;;;;;;0.57;0.57;;;9.20;99.90;;;;;;4747134;29;20210;-88
2021/12/28 08:29:38;;;;;;;0.60;0.40;;;9.30;99.90;;;;;;4760269;29;20211;-88
2021/12/28 08:32:04;;;;;;;1.40;0.90;;;9.50;99.90;;;;;;4746396;29;20197;-89
2021/12/28 08:34:29;;;;;;;0.70;0.70;;;9.50;99.90;;;;;;4741465;29;21429;-88
2021/12/28 08:36:55;;;;;;;0.63;0.63;;;9.50;99.90;;;;;;4751463;29;20810;-90
2021/12/28 08:39:21;;;;;;;1.40;1.30;;;9.50;99.90;;;;;;4747190;29;20323;-89
2021/12/28 08:41:46;;;;;;;0.70;0.70;;;9.50;99.90;;;;;;4746044;29;20213;-88
2021/12/28 08:44:12;;;;;;;0.80;0.80;;;9.50;99.90;;;;;;4747194;29;20255;-89
2021/12/28 08:46:39;;;;;;;0.77;0.77;;;9.50;99.90;;;;;;4763427;29;20207;-90
2021/12/28 08:49:05;;;;;;;2.20;1.00;;;9.50;99.90;;;;;;4788196;29;20216;-89
2021/12/28 08:51:31;;;;;;;0.60;0.60;;;9.60;99.90;;;;;;4786317;29;20465;-90
2021/12/28 08:53:57;;;;;;;1.27;0.60;;;9.70;99.90;;;;;;4774896;29;20519;-90
2021/12/28 08:56:23;;;;;;;3.63;0.77;;;9.90;99.90;;;;;;4756465;29;21261;-89
2021/12/28 08:58:50;;;;;;;0.87;0.70;;;10.00;99.90;;;;;;4767076;29;20775;-89
2021/12/28 09:01:16;;;;;;;0.70;0.70;;;10.00;99.90;;;;;;4761196;29;21743;-89
2021/12/28 09:03:42;;;;;;;1.33;1.20;;;10.10;99.90;;;;;;4760304;29;20608;-89
2021/12/28 09:06:08;;;;;;;6.60;1.23;;;10.00;99.90;;;;;;4750818;29;20473;-89
2021/12/28 09:08:35;;;;;;;0.80;0.50;;;10.00;99.90;;;;;;4760277;29;20281;-89
2021/12/28 09:11:01;;;;;;;0.80;0.80;;;10.00;99.90;;;;;;4759582;29;20208;-90
2021/12/28 09:13:26;;;;;;;0.67;0.67;;;10.10;99.90;;;;;;4761785;29;20465;-89
2021/12/28 09:15:52;;;;;;;1.00;0.90;;;10.10;99.90;;;;;;4763378;29;20304;-90
2021/12/28 09:18:18;;;;;;;1.13;1.03;;;10.10;99.90;;;;;;4750273;29;21014;-90
2021/12/28 09:20:45;;;;;;;0.87;0.83;;;10.10;99.90;;;;;;4748713;29;20545;-94
2021/12/28 09:23:12;;;;;;;0.60;0.60;;;10.10;99.90;;;;;;4745247;29;20212;-92
2021/12/28 09:25:38;;;;;;;1.37;1.00;;;10.20;99.90;;;;;;4747637;29;21040;-91
2021/12/28 09:28:06;;;;;;;0.40;0.40;;;10.10;99.90;;;;;;4756777;29;20902;-89
2021/12/28 09:30:33;;;;;;;1.23;0.40;;;10.20;99.90;;;;;;4753601;29;20477;-85
2021/12/28 09:32:59;;;;;;;0.47;0.40;;;10.20;99.90;;;;;;4776440;29;21887;-90
2021/12/28 09:35:25;;;;;;;0.50;0.30;;;10.30;99.90;;;;;;4788652;29;20474;-91
2021/12/28 09:37:50;;;;;;;0.60;0.60;;;10.40;99.90;;;;;;4778559;29;20231;-90
2021/12/28 09:40:16;;;;;;;0.40;0.40;;;10.40;99.90;;;;;;4771918;29;20204;-90
2021/12/28 09:42:45;;;;;;;0.50;0.30;;;10.40;99.90;;;;;;4766738;29;20247;-90
2021/12/28 09:45:12;;;;;;;0.50;0.33;;;10.40;99.90;;;;;;4742497;29;21099;-92
2021/12/28 09:47:38;;;;;;;0.30;0.30;;;10.40;99.90;;;;;;4763605;29;20579;-91
2021/12/28 09:50:06;;;;;;;0.43;0.43;;;10.40;99.90;;;;;;4768350;29;21549;-92
2021/12/28 09:52:33;;;;;;;0.90;0.40;;;10.40;99.90;;;;;;4765364;29;20482;-91
2021/12/28 09:54:59;;;;;;;1.13;0.50;;;10.40;99.90;;;;;;4755632;29;20459;-90
2021/12/28 09:57:28;;;;;;;0.30;0.30;;;10.50;99.90;;;;;;4745007;29;20473;-91
2021/12/28 09:59:54;;;;;;;1.63;1.53;;;10.50;99.90;;;;;;4745458;29;20478;-92
2021/12/28 10:02:20;;;;;;;3.10;2.37;;;10.50;99.90;;;;;;4748320;29;20457;-92
2021/12/28 10:05:05;;;;;;;0.40;0.40;;;10.50;99.90;;;;;;4749115;29;20550;-93
2021/12/28 10:07:34;;;;;;;0.77;0.77;;;10.60;99.90;;;;;;4769191;29;20188;-92
2021/12/28 10:09:59;;;;;;;0.63;0.60;;;10.60;99.90;;;;;;4766010;29;20465;-93
2021/12/28 10:12:31;;;;;;;0.97;0.70;;;10.60;99.90;;;;;;4766519;29;20534;-94
2021/12/28 10:15:02;;;;;;;0.80;0.80;;;10.60;99.90;;;;;;4753684;29;20471;-92
2021/12/28 10:17:31;;;;;;;0.50;0.50;;;10.60;99.90;;;;;;4755232;29;20476;-93
2021/12/28 10:19:59;;;;;;;0.50;0.50;;;10.60;99.90;;;;;;4768564;29;20830;-92
2021/12/28 10:22:35;;;;;;;0.80;0.40;;;10.60;99.90;;;;;;4766437;29;21158;-93
2021/12/28 10:25:03;;;;;;;0.50;0.50;;;10.60;99.90;;;;;;4768718;29;21793;-92
2021/12/28 10:27:31;;;;;;;0.60;0.40;;;10.60;99.90;;;;;;4758453;29;20454;-91
2021/12/28 10:30:07;;;;;;;0.80;0.80;;;10.70;99.90;;;;;;4750662;29;20474;-91
2021/12/28 10:32:33;;;;;;;0.60;0.60;;;10.70;99.90;;;;;;4760078;29;20568;-92
2021/12/28 10:35:05;;;;;;;0.30;0.30;;;10.80;99.90;;;;;;4762086;29;20469;-92
2021/12/28 10:37:39;;;;;;;0.70;0.40;;;10.90;99.90;;;;;;4763845;29;20461;-91
2021/12/28 10:40:12;;;;;;;0.60;0.60;;;10.80;99.90;;;;;;4763088;29;20479;-92
2021/12/28 10:43:01;;;;;;;0.93;0.70;;;10.90;99.90;;;;;;4748263;29;20466;-92
2021/12/28 10:45:50;;;;;;;0.30;0.30;;;11.10;99.90;;;;;;4749696;29;21041;-91
2021/12/28 10:48:26;;;;;;;0.70;0.50;;;11.40;99.90;;;;;;4752019;29;20518;-91
2021/12/28 10:51:08;;;;;;;0.87;0.80;;;11.50;99.90;;;;;;4763880;29;20465;-91
2021/12/28 10:56:30;;;;;;;0.40;0.30;;;11.50;99.90;;;;;;4763170;29;20446;-92
2021/12/28 10:58:57;;;;;;;0.53;0.53;;;11.40;99.90;;;;;;4761334;29;20462;-90
2021/12/28 11:01:28;;;;;;;0.40;0.30;;;11.30;99.90;;;;;;4763906;29;20518;-91
2021/12/28 11:03:55;;;;;;;0.80;0.50;;;11.20;99.90;;;;;;4761413;29;20469;-91
2021/12/28 11:06:31;;;;;;;0.47;0.47;;;11.10;99.90;;;;;;4761459;29;21067;-91
2021/12/28 11:09:05;;;;;;;0.63;0.50;;;11.10;99.90;;;;;;4751159;29;20539;-92
2021/12/28 11:11:34;;;;;;;1.07;0.57;;;11.20;99.90;;;;;;4761580;29;20466;-91
2021/12/28 11:14:09;;;;;;;0.97;0.53;;;11.20;99.90;;;;;;4765885;29;20454;-91
2021/12/28 11:16:35;;;;;;;0.50;0.50;;;11.30;99.90;;;;;;4748122;29;20472;-91
2021/12/28 11:19:13;;;;;;;0.63;0.63;;;11.50;99.90;;;;;;4768268;29;21152;-91
2021/12/28 11:21:52;;;;;;;0.60;0.60;;;12.00;99.90;;;;;;4763905;29;20469;-92
2021/12/28 11:24:20;;;;;;;0.60;0.60;;;12.20;99.90;;;;;;4743307;29;20473;-92
2021/12/28 11:26:51;;;;;;;1.80;0.40;;;12.10;99.90;;;;;;4748054;29;20477;-91
2021/12/28 11:29:22;;;;;;;1.30;0.50;;;11.90;99.90;;;;;;4762347;29;20522;-91
2021/12/28 11:31:52;;;;;;;0.77;0.30;;;11.90;99.90;;;;;;4749174;29;20560;-92
2021/12/28 11:34:28;;;;;;;0.30;0.30;;;11.70;99.90;;;;;;4749349;29;20633;-92
2021/12/28 11:37:01;;;;;;;0.30;0.30;;;11.80;99.90;;;;;;4747270;29;20530;-91
2021/12/28 11:39:33;;;;;;;0.80;0.67;;;11.80;99.90;;;;;;4746691;29;20485;-92
2021/12/28 11:41:59;;;;;;;0.47;0.47;;;11.70;99.90;;;;;;4752261;29;20498;-93
2021/12/28 11:44:26;;;;;;;1.53;1.00;;;11.60;99.90;;;;;;4744853;29;20901;-91
2021/12/28 11:46:54;;;;;;;0.40;0.40;;;11.60;99.90;;;;;;4765673;29;20462;-92
2021/12/28 11:49:24;;;;;;;1.00;0.90;;;11.60;99.90;;;;;;4742692;29;20959;-91
2021/12/28 11:51:58;;;;;;;1.33;0.83;;;11.70;99.90;;;;;;4748353;29;20818;-92
2021/12/28 11:54:25;;;;;;;1.03;0.60;;;11.90;99.90;;;;;;4767750;29;20486;-92
2021/12/28 11:56:57;;;;;;;0.63;0.63;;;12.10;99.90;;;;;;4747698;29;20460;-91
2021/12/28 11:59:28;;;;;;;0.77;0.77;;;12.10;99.90;;;;;;4745716;29;20466;-91
2021/12/28 12:02:00;;;;;;;0.87;0.70;;;12.00;99.90;;;;;;4756364;29;20532;-91
2021/12/28 12:04:42;;;;;;;0.90;0.70;;;11.90;99.90;;;;;;4761663;29;20477;-92
2021/12/28 12:07:14;;;;;;;1.30;1.20;;;11.80;99.90;;;;;;4745944;29;20481;-91
2021/12/28 12:09:52;;;;;;;1.20;1.10;;;11.70;99.90;;;;;;4761714;29;20485;-91
2021/12/28 12:12:20;;;;;;;0.97;0.90;;;11.70;99.90;;;;;;4762428;29;20458;-91
2021/12/28 12:14:56;;;;;;;0.90;0.87;;;11.70;99.90;;;;;;4765903;29;20554;-91
2021/12/28 12:17:28;;;;;;;0.70;0.70;;;11.80;99.90;;;;;;4760803;29;20461;-90
2021/12/28 12:20:22;;;;;;;1.10;1.00;;;11.70;99.90;;;;;;4769527;29;20461;-91
2021/12/28 12:22:53;;;;;;;0.93;0.93;;;11.70;99.90;;;;;;4752170;29;20489;-91
2021/12/28 12:25:31;;;;;;;0.83;0.70;;;11.70;99.90;;;;;;4758360;29;20485;-90
2021/12/28 12:28:04;;;;;;;1.00;0.90;;;11.60;99.90;;;;;;4771682;29;21094;-91
2021/12/28 12:30:29;;;;;;;0.90;0.90;;;11.60;99.90;;;;;;4754239;29;20592;-91
2021/12/28 12:32:58;;;;;;;3.23;0.70;;;11.60;99.90;;;;;;4753644;29;20461;-91
2021/12/28 12:35:39;;;;;;;1.20;1.10;;;11.70;99.90;;;;;;4746779;29;20918;-91
2021/12/28 12:38:14;;;;;;;1.40;1.30;;;11.70;99.90;;;;;;4765908;29;20474;-91
2021/12/28 12:40:59;;;;;;;1.70;1.33;;;11.70;99.90;;;;;;4760250;29;20833;-91
2021/12/28 12:43:40;;;;;;;1.43;1.10;;;11.80;99.90;;;;;;4753425;29;20469;-91
2021/12/28 12:46:20;;;;;;;1.27;1.20;;;11.70;99.90;;;;;;4766405;29;20488;-90
2021/12/28 12:48:46;;;;;;;0.90;0.73;;;11.70;99.90;;;;;;4756912;29;21060;-91
2021/12/28 12:51:24;;;;;;;1.30;1.10;;;11.70;99.90;;;;;;4765534;29;20464;-90
2021/12/28 12:54:00;;;;;;;2.07;1.90;;;11.70;99.90;;;;;;4768325;29;22579;-90
2021/12/28 12:56:49;;;;;;;2.50;1.90;;;11.70;99.90;;;;;;4766826;29;21005;-90
2021/12/28 12:59:23;;;;;;;2.60;1.70;;;11.70;99.90;;;;;;4750025;29;20458;-91
2021/12/28 13:01:48;;;;;;;1.50;1.40;;;11.70;99.90;;;;;;4751442;29;20578;-91
2021/12/28 13:04:26;;;;;;;1.13;1.03;;;11.70;99.90;;;;;;4761314;29;20665;-91